Date,TemperatureHighF,TemperatureAvgF,TemperatureLowF,DewpointHighF,DewpointAvgF,DewpointLowF,HumidityHigh,HumidityAvg,HumidityLow,PressureMaxIn,PressureMinIn,WindSpeedMaxMPH,WindSpeedAvgMPH,GustSpeedMaxMPH,PrecipitationSumIn
2013-2-1,62.5,49.6,41.1,40.0,35.7,26.0,85,61,34,30.31,30.22,12,2,0,0.00
2013-2-2,58.8,47.3,34.8,51.0,35.9,23.0,91,66,48,30.30,30.10,10,3,0,0.00
2013-2-3,67.1,55.5,46.7,50.0,43.7,30.0,94,69,26,30.17,30.03,14,3,0,0.00
2013-2-4,61.2,54.1,43.4,57.0,46.7,36.0,89,77,48,30.06,29.92,10,2,0,0.00
2013-2-5,63.9,58.3,54.7,61.0,56.7,53.0,97,94,85,29.97,29.89,8,3,0,0.25
2013-2-6,67.7,60.5,56.9,62.0,58.0,56.0,98,92,80,30.07,29.96,12,4,0,0.00
2013-2-7,71.9,63.4,57.7,67.0,61.0,56.0,98,92,74,29.97,29.72,30,5,0,1.02
2013-2-8,65.4,58.0,50.5,62.0,55.9,50.0,98,92,86,30.07,29.86,14,3,0,0.01
2013-2-9,59.0,53.4,44.7,54.0,47.8,41.0,96,82,56,30.18,30.07,12,4,0,0.00
2013-2-10,68.1,60.2,49.2,67.0,58.4,48.0,96,93,89,30.11,29.96,27,14,0,0.01
2013-2-11,68.1,65.0,59.3,67.0,63.6,57.0,97,94,88,30.03,29.95,21,10,0,0.62
2013-2-12,69.6,64.1,59.0,69.0,62.4,57.0,98,94,89,29.97,29.70,24,10,0,0.02
2013-2-13,69.6,58.9,47.8,69.0,54.0,46.0,97,84,57,29.98,29.71,18,5,0,0.06
2013-2-14,56.0,46.8,40.9,46.0,42.3,39.0,94,85,62,30.07,29.94,7,2,0,0.00
2013-2-15,59.8,50.0,37.0,47.0,42.6,36.0,97,78,49,30.08,29.95,15,4,0,0.01
2013-2-16,54.0,47.5,35.7,44.0,31.1,19.0,83,56,28,30.21,29.96,18,5,0,0.00
2013-2-17,50.1,40.8,30.2,36.0,27.3,17.0,85,61,31,30.32,30.20,14,3,0,0.00
2013-2-18,59.8,51.1,39.0,55.0,43.9,35.0,89,77,62,30.26,30.03,24,12,0,0.00
2013-2-19,67.7,60.5,45.8,62.0,50.4,29.0,96,71,39,30.12,29.95,26,8,0,0.73
2013-2-20,58.6,46.9,37.2,39.0,30.4,25.0,80,56,28,30.16,30.03,16,2,0,0.00
2013-2-21,62.3,53.4,39.5,61.0,45.5,34.0,98,76,47,30.05,29.88,15,7,0,0.00
2013-2-22,66.2,63.6,60.8,66.0,63.3,60.0,100,99,97,29.91,29.83,16,6,0,1.97
2013-2-23,65.9,50.7,56.0,66.0,32.7,-99.9,100,81,98,29.86,29.72,12,-176,0,0.59
2013-2-24,66.9,54.5,52.4,60.0,41.6,-99.9,98,79,60,29.91,29.79,14,-91,0,1.24
2013-2-25,65.0,53.1,58.1,64.0,39.0,-99.9,98,83,90,29.79,29.49,22,-120,0,1.58
2013-2-26,66.6,50.9,51.3,66.0,33.4,-99.9,99,70,69,29.84,29.45,31,-106,0,0.23
2013-2-27,58.8,51.2,45.9,49.0,40.9,-99.9,92,74,62,29.95,29.84,19,-27,0,0.00
2013-2-28,59.9,51.4,45.8,48.0,35.1,-99.9,92,59,31,29.99,29.88,15,-17,0,0.00